首页
METAR-TAF:

METAR-TAF

机场 :

安吉利斯港, 华盛顿, 美国

纬度: 48-07-20N, 经度: 123-30-19W, 海拔: 87米

当前天气观测

该预报发布于56分钟前的17:08 UTC
风速8节,风向西北
温度 14°C
湿度 94%
气压 1023 hPa
能見度: 16.1公里
少量云层高于400英尺
阴天层高于4900英尺

METAR: KCLM 081708Z AUTO 31008KT 10SM FEW004 OVC049 14/13 A3021 RMK AO2 T01440133

时间: 11:04 (18:04 UTC)

预报

该预报发布于39分钟前的17:25 UTC
预报有效从08日的 18点(UTC)到 09日的 18点(UTC)
风速7节,风向西北
能見度: 10公里
阴天层高于5000英尺
从 08日的 2300点(UTC)
风速13节,风向西转西北,有时为20节阵风
能見度: 10公里
散云层高于6000英尺
从 09日的 0500点(UTC)
风速10节,风向西转西北
能見度: 10公里
少量云层高于25000英尺
从 09日的 1100点(UTC)
风速4节,风向西
能見度: 10公里
少量云层高于25000英尺

TAF: KCLM 081725Z 0818/0918 31007KT P6SM OVC050 FM082300 30013G20KT P6SM SCT060 FM090500 29010KT P6SM FEW250 FM091100 26004KT P6SM FEW250

超过4000个机场的气象观测和天气预报(METAR&TAF报告)。

可查询的气象台以黄色和红色小点在地图上表示。

将鼠标移到小点上方,可查看气象台名称。

然后点击查看天气观测和预报。

如需切换地图:点击带黑十字的绿色按钮放大地图;点击带横线的绿色按钮缩小地图;或者点击绿色箭头查看邻近地区的地图。


METAR-TAF: